Time;durP1;ratioP1;P1;durP2;ratioP2;P2;SDS_P1;SDS_P2;PMS_P1;PMS_P2;Temp;Humidity;BMP_temperature;BMP_pressure;BME280_temperature;BME280_humidity;BME280_pressure;Samples;Min_cycle;Max_cycle;Signal;HPM_P1;HPM_P2
2022/07/18 00:01:08;;;;;;;3.75;2.63;;;;;;;19.56;50.31;95439.69;4973639;28;20212;-83
2022/07/18 00:03:34;;;;;;;6.32;2.80;;;;;;;19.57;49.93;95443.09;4973877;28;20212;-80
2022/07/18 00:06:01;;;;;;;8.98;2.90;;;;;;;19.49;49.68;95446.19;4973690;28;20212;-80
2022/07/18 00:08:28;;;;;;;5.53;3.00;;;;;;;19.39;49.95;95443.50;4973522;28;20227;-80
2022/07/18 00:10:55;;;;;;;3.72;2.53;;;;;;;19.43;50.04;95439.31;4962283;28;20335;-80
2022/07/18 00:13:23;;;;;;;5.78;2.97;;;;;;;19.49;50.11;95436.44;4954325;28;20221;-80
2022/07/18 00:15:50;;;;;;;4.70;2.80;;;;;;;19.35;49.93;95426.56;4965483;28;20229;-80
2022/07/18 00:18:17;;;;;;;3.42;2.88;;;;;;;19.36;49.93;95441.34;4954926;28;20208;-80
2022/07/18 00:20:44;;;;;;;4.05;2.90;;;;;;;19.40;49.91;95439.81;4971908;28;20707;-80
2022/07/18 00:23:10;;;;;;;3.13;2.42;;;;;;;19.23;49.15;95414.38;4973384;28;20208;-81
2022/07/18 00:25:37;;;;;;;7.55;2.60;;;;;;;19.44;48.62;95438.25;4973310;28;21036;-81
2022/07/18 00:28:04;;;;;;;4.32;2.75;;;;;;;19.44;48.74;95433.78;4973217;28;20638;-81
2022/07/18 00:30:33;;;;;;;3.85;2.40;;;;;;;19.39;48.71;95432.97;4960728;28;20201;-81
2022/07/18 00:33:00;;;;;;;5.57;2.63;;;;;;;19.32;48.85;95427.88;4968565;28;20636;-81
2022/07/18 00:35:26;;;;;;;3.70;2.78;;;;;;;19.49;48.81;95433.81;4971025;28;20217;-81
2022/07/18 00:37:53;;;;;;;7.10;2.70;;;;;;;19.53;48.61;95428.84;4967119;28;20614;-82
2022/07/18 00:40:20;;;;;;;4.60;2.20;;;;;;;19.46;48.67;95429.03;4973681;28;20260;-81
2022/07/18 00:42:47;;;;;;;3.00;2.60;;;;;;;19.36;48.36;95426.31;4973038;28;20211;-81
2022/07/18 00:45:14;;;;;;;3.00;2.50;;;;;;;19.30;48.06;95423.91;4963213;28;20209;-81
2022/07/18 00:47:42;;;;;;;7.70;2.58;;;;;;;19.04;47.81;95425.56;4960771;28;20209;-81
2022/07/18 00:50:10;;;;;;;4.45;2.25;;;;;;;18.94;48.13;95431.50;4970573;28;20204;-82
2022/07/18 00:52:37;;;;;;;2.33;2.05;;;;;;;18.72;47.74;95433.44;4973179;28;20224;-81
2022/07/18 00:55:12;;;;;;;5.15;2.25;;;;;;;18.45;48.21;95409.69;4973165;28;20204;-83
2022/07/18 00:57:41;;;;;;;4.60;2.80;;;;;;;18.46;48.41;95442.88;4965954;28;20672;-82
2022/07/18 01:02:59;;;;;;;3.57;2.43;;;;;;;18.22;49.11;95438.13;4960055;28;20204;-83
2022/07/18 01:05:26;;;;;;;3.53;2.43;;;;;;;18.34;48.74;95442.22;4959392;28;20212;-83
2022/07/18 01:07:53;;;;;;;4.30;2.20;;;;;;;18.51;48.31;95448.22;4967861;28;20256;-83
2022/07/18 01:10:20;;;;;;;3.70;2.17;;;;;;;18.65;47.73;95443.34;4966029;28;20214;-83
2022/07/18 01:12:47;;;;;;;5.47;2.13;;;;;;;18.66;47.29;95439.69;4954136;28;20660;-83
2022/07/18 01:15:14;;;;;;;4.18;2.65;;;;;;;18.63;47.62;95433.09;4958803;28;20233;-84
2022/07/18 01:17:41;;;;;;;4.33;2.30;;;;;;;18.66;47.48;95440.50;4972776;28;20213;-83
2022/07/18 01:20:11;;;;;;;2.75;2.20;;;;;;;18.70;47.16;95432.88;4972651;28;20201;-82
2022/07/18 01:22:41;;;;;;;4.18;2.30;;;;;;;18.71;46.75;95437.09;4960683;28;20197;-82
2022/07/18 01:25:08;;;;;;;4.13;2.07;;;;;;;18.70;46.38;95441.56;4959366;28;20660;-83
2022/07/18 01:27:35;;;;;;;3.47;1.90;;;;;;;18.66;46.46;95437.06;4959785;28;20252;-80
2022/07/18 01:30:03;;;;;;;3.40;2.05;;;;;;;18.67;46.42;95442.06;4959465;28;20208;-80
2022/07/18 01:32:30;;;;;;;3.97;2.13;;;;;;;18.68;46.75;95434.97;4960337;28;20213;-80
2022/07/18 01:34:56;;;;;;;6.93;2.23;;;;;;;18.68;46.60;95434.97;4965483;28;20629;-79
2022/07/18 01:37:23;;;;;;;2.90;2.33;;;;;;;18.65;46.52;95425.72;4966327;28;20204;-80
2022/07/18 01:39:52;;;;;;;7.73;2.30;;;;;;;18.61;46.45;95432.50;4953027;28;20205;-79
2022/07/18 01:42:18;;;;;;;3.30;2.13;;;;;;;18.57;46.27;95423.53;4953523;28;20702;-80
2022/07/18 01:44:46;;;;;;;3.45;2.65;;;;;;;18.48;45.99;95425.03;4972519;28;20227;-80
2022/07/18 01:47:13;;;;;;;4.40;2.20;;;;;;;18.34;47.09;95431.69;4959359;28;20227;-79
2022/07/18 01:49:41;;;;;;;3.47;2.50;;;;;;;18.31;47.41;95426.13;4959342;28;20209;-81
2022/07/18 01:52:08;;;;;;;7.50;2.50;;;;;;;18.29;47.74;95423.75;4959131;28;20209;-80
2022/07/18 01:54:37;;;;;;;4.20;2.20;;;;;;;18.26;48.17;95418.97;4953163;28;20236;-81
2022/07/18 01:57:07;;;;;;;2.53;2.10;;;;;;;18.25;47.56;95411.31;4953705;28;20216;-81
2022/07/18 01:59:34;;;;;;;4.07;2.13;;;;;;;18.21;47.48;95411.00;4959616;28;20206;-81
2022/07/18 02:02:03;;;;;;;4.90;2.50;;;;;;;18.25;47.11;95412.09;4972125;28;20208;-81
2022/07/18 02:07:11;;;;;;;4.67;2.33;;;;;;;18.26;47.52;95418.16;4962984;28;20705;-81
2022/07/18 02:09:37;;;;;;;5.37;2.50;;;;;;;18.29;47.34;95415.06;4955244;28;20242;-83
2022/07/18 02:12:06;;;;;;;3.00;2.13;;;;;;;18.28;47.37;95421.34;4972296;28;20200;-83
2022/07/18 02:14:33;;;;;;;4.23;2.13;;;;;;;18.23;48.51;95424.72;4968039;28;20237;-83
2022/07/18 02:17:00;;;;;;;4.73;2.17;;;;;;;18.21;47.57;95436.53;4948606;29;20204;-82
2022/07/18 02:19:27;;;;;;;7.60;2.30;;;;;;;18.19;47.09;95428.88;4944274;29;20213;-81
2022/07/18 02:21:53;;;;;;;4.67;2.27;;;;;;;18.31;47.08;95426.13;4946851;29;20687;-81
2022/07/18 02:24:21;;;;;;;5.83;2.50;;;;;;;18.29;47.82;95426.38;4944657;29;20202;-81
2022/07/18 02:26:48;;;;;;;5.90;2.40;;;;;;;18.28;48.00;95434.50;4941149;29;20210;-81
2022/07/18 02:29:16;;;;;;;4.40;2.50;;;;;;;18.30;48.98;95437.69;4951425;29;20701;-81
2022/07/18 02:31:43;;;;;;;2.77;2.13;;;;;;;18.31;47.46;95437.44;4933619;29;20202;-80
2022/07/18 02:34:10;;;;;;;4.05;2.17;;;;;;;18.26;46.86;95426.88;4933916;29;20713;-80
2022/07/18 02:36:38;;;;;;;3.83;2.23;;;;;;;18.22;46.91;95432.84;4941409;28;20213;-80
2022/07/18 02:39:04;;;;;;;7.10;2.43;;;;;;;18.20;46.25;95435.75;4944997;29;20206;-80
2022/07/18 02:41:31;;;;;;;6.10;2.10;;;;;;;18.16;46.05;95439.91;4956273;29;20656;-80
2022/07/18 02:43:58;;;;;;;6.15;2.35;;;;;;;18.14;46.18;95452.50;4956018;29;20205;-80
2022/07/18 02:46:27;;;;;;;5.60;2.10;;;;;;;18.18;46.43;95444.94;4955903;29;20212;-80
2022/07/18 02:48:54;;;;;;;5.37;2.30;;;;;;;18.20;47.06;95451.53;4937971;29;20871;-80
2022/07/18 02:51:21;;;;;;;4.73;2.40;;;;;;;18.23;47.68;95455.50;4944061;29;20655;-80
2022/07/18 02:53:48;;;;;;;4.65;2.55;;;;;;;18.22;47.88;95453.91;4937699;29;20356;-80
2022/07/18 02:56:14;;;;;;;9.13;2.60;;;;;;;18.15;47.86;95447.00;4949636;29;20206;-80
2022/07/18 02:58:41;;;;;;;4.87;2.60;;;;;;;18.17;48.31;95457.28;4949585;29;20590;-81
2022/07/18 03:01:08;;;;;;;6.87;2.53;;;;;;;18.04;49.68;95444.47;4943422;29;20213;-80
2022/07/18 03:03:36;;;;;;;5.70;2.77;;;;;;;17.96;50.02;95458.88;4937036;29;20586;-80
2022/07/18 03:06:03;;;;;;;6.83;2.73;;;;;;;17.90;50.02;95453.78;4943883;29;20272;-80
2022/07/18 03:08:30;;;;;;;8.20;2.53;;;;;;;17.91;50.17;95458.00;4937115;29;20209;-80
2022/07/18 03:10:57;;;;;;;7.27;3.00;;;;;;;17.92;49.07;95462.25;4937224;29;20210;-84
2022/07/18 03:13:24;;;;;;;4.80;2.73;;;;;;;17.86;48.69;95458.75;4937009;29;20230;-83
2022/07/18 03:15:51;;;;;;;4.10;2.60;;;;;;;17.81;49.30;95463.91;4956547;28;20235;-83
2022/07/18 03:18:18;;;;;;;9.97;3.20;;;;;;;17.80;49.85;95470.22;4969074;28;20695;-79
2022/07/18 03:20:46;;;;;;;7.07;2.80;;;;;;;17.84;50.34;95473.94;4968324;28;20209;-81
2022/07/18 03:23:13;;;;;;;7.37;2.80;;;;;;;17.87;50.69;95465.56;4963354;28;20205;-80
2022/07/18 03:25:40;;;;;;;7.57;2.63;;;;;;;17.84;50.92;95462.63;4960920;28;20201;-80
2022/07/18 03:28:06;;;;;;;4.67;3.00;;;;;;;17.80;49.92;95448.38;4969152;28;20324;-80
2022/07/18 03:30:33;;;;;;;5.33;2.63;;;;;;;17.82;49.77;95464.72;4974169;28;20201;-80
2022/07/18 03:33:00;;;;;;;6.83;2.70;;;;;;;17.76;50.64;95463.06;4974446;28;20876;-78
2022/07/18 03:35:27;;;;;;;4.53;2.63;;;;;;;17.75;50.70;95459.63;4974141;28;20299;-79
2022/07/18 03:37:55;;;;;;;5.83;3.23;;;;;;;17.65;50.80;95461.31;4967928;28;20303;-78
2022/07/18 03:40:22;;;;;;;6.33;3.07;;;;;;;17.52;51.03;95462.41;4968860;28;20212;-80
2022/07/18 03:42:49;;;;;;;5.17;2.90;;;;;;;17.57;51.19;95457.28;4971570;28;20212;-80
2022/07/18 03:45:16;;;;;;;10.30;3.20;;;;;;;17.58;50.60;95454.41;4968241;28;20588;-80
2022/07/18 03:47:43;;;;;;;7.20;3.17;;;;;;;17.67;49.83;95460.03;4974236;28;20233;-80
2022/07/18 03:50:10;;;;;;;9.53;2.70;;;;;;;17.71;50.01;95460.34;4968067;28;20687;-80
2022/07/18 03:52:37;;;;;;;9.97;3.37;;;;;;;17.71;50.26;95469.06;4967722;28;20615;-80
2022/07/18 03:55:06;;;;;;;9.43;3.30;;;;;;;17.76;50.58;95469.13;4963488;28;20221;-81
2022/07/18 03:57:33;;;;;;;5.23;2.90;;;;;;;17.73;49.37;95468.78;4968267;28;20371;-80
2022/07/18 04:00:00;;;;;;;8.10;3.10;;;;;;;17.70;49.42;95464.81;4954751;28;20681;-80
2022/07/18 04:02:27;;;;;;;8.30;3.53;;;;;;;17.69;49.82;95465.06;4964962;28;20220;-76
2022/07/18 04:04:54;;;;;;;10.40;3.83;;;;;;;17.73;50.56;95466.16;4973302;28;20321;-76
2022/07/18 04:07:20;;;;;;;9.47;3.50;;;;;;;17.83;51.33;95469.75;4972565;28;20215;-76
2022/07/18 04:09:47;;;;;;;6.83;3.47;;;;;;;17.84;50.92;95471.31;4973814;28;20220;-75
2022/07/18 04:12:15;;;;;;;10.63;3.50;;;;;;;17.85;51.19;95478.19;4963626;28;20269;-77
2022/07/18 04:14:42;;;;;;;15.37;3.67;;;;;;;17.83;52.25;95469.75;4959639;28;20317;-76
2022/07/18 04:17:09;;;;;;;13.23;3.90;;;;;;;17.93;52.00;95466.44;4956568;28;20629;-76
2022/07/18 04:19:36;;;;;;;7.67;3.50;;;;;;;17.91;51.46;95471.16;4956804;28;20592;-76
2022/07/18 04:22:04;;;;;;;9.40;3.60;;;;;;;17.95;51.56;95475.69;4963522;28;20592;-76
2022/07/18 04:24:31;;;;;;;10.50;3.93;;;;;;;17.98;51.21;95469.13;4937027;28;20201;-76
2022/07/18 04:26:58;;;;;;;15.77;4.17;;;;;;;18.07;51.17;95471.09;4961712;28;20203;-76
2022/07/18 04:29:26;;;;;;;5.87;3.30;;;;;;;18.17;49.79;95473.06;4971781;28;20220;-76
2022/07/18 04:31:53;;;;;;;12.40;3.10;;;;;;;18.13;48.02;95471.97;4972334;28;20513;-77
2022/07/18 04:34:20;;;;;;;5.73;2.50;;;;;;;18.12;46.46;95459.88;4972240;28;20228;-77
2022/07/18 04:36:47;;;;;;;4.07;2.50;;;;;;;18.02;46.43;95460.53;4971674;28;20707;-75
2022/07/18 04:39:14;;;;;;;5.27;2.60;;;;;;;18.04;46.95;95460.25;4972289;28;20212;-75
2022/07/18 04:41:41;;;;;;;6.60;2.50;;;;;;;18.00;47.12;95461.81;4971291;28;20984;-74
2022/07/18 04:44:07;;;;;;;4.17;2.20;;;;;;;18.00;45.70;95459.19;4969789;28;20224;-75
2022/07/18 04:46:36;;;;;;;5.43;2.47;;;;;;;17.95;46.02;95459.88;4952611;28;20213;-76
2022/07/18 04:49:03;;;;;;;4.07;2.20;;;;;;;18.04;44.59;95458.44;4952676;28;20240;-77
2022/07/18 04:51:30;;;;;;;7.33;2.00;;;;;;;18.05;44.79;95454.78;4954617;28;20202;-75
2022/07/18 04:53:57;;;;;;;7.43;2.30;;;;;;;18.34;44.23;95454.56;4971797;28;20250;-75
2022/07/18 04:56:24;;;;;;;6.37;1.70;;;;;;;18.48;43.14;95466.31;4965101;28;20209;-75
2022/07/18 04:58:51;;;;;;;8.03;2.10;;;;;;;18.43;43.60;95461.00;4970276;28;20209;-74
2022/07/18 05:01:17;;;;;;;4.77;2.17;;;;;;;18.37;43.88;95457.53;4970433;28;20639;-75
2022/07/18 05:03:46;;;;;;;5.27;2.33;;;;;;;18.22;44.05;95459.16;4971506;28;20231;-75
2022/07/18 05:06:12;;;;;;;6.60;2.40;;;;;;;18.19;44.36;95464.91;4971424;28;20209;-75
2022/07/18 05:08:39;;;;;;;5.10;2.03;;;;;;;18.24;44.98;95463.16;4971399;28;20687;-74
2022/07/18 05:11:06;;;;;;;3.20;2.07;;;;;;;18.30;43.79;95461.38;4971728;28;20534;-74
2022/07/18 05:13:36;;;;;;;4.43;2.00;;;;;;;18.33;43.32;95456.41;4971140;28;20208;-75
2022/07/18 05:16:04;;;;;;;3.87;2.00;;;;;;;18.39;43.67;95462.53;4971348;28;20228;-74
2022/07/18 05:18:31;;;;;;;1.97;1.67;;;;;;;18.42;42.92;95462.84;4971367;28;20209;-74
2022/07/18 05:20:59;;;;;;;7.13;2.25;;;;;;;18.32;43.75;95461.94;4964795;28;20219;-75
2022/07/18 05:23:26;;;;;;;7.33;2.43;;;;;;;18.26;43.80;95462.91;4970157;28;20602;-75
2022/07/18 05:25:52;;;;;;;4.87;1.70;;;;;;;18.38;44.29;95456.50;4956091;28;20708;-75
2022/07/18 05:28:19;;;;;;;4.90;2.00;;;;;;;18.90;43.33;95463.91;4951961;28;20216;-75
2022/07/18 05:30:46;;;;;;;4.47;2.30;;;;;;;19.14;43.11;95465.94;4951646;28;20208;-75
2022/07/18 05:33:15;;;;;;;4.35;2.10;;;;;;;19.21;43.27;95457.84;4951748;28;20707;-75
2022/07/18 05:35:42;;;;;;;8.48;2.70;;;;;;;19.12;43.48;95469.88;4951632;28;20245;-76
2022/07/18 05:38:10;;;;;;;3.80;2.20;;;;;;;19.01;43.60;95469.00;4951921;28;20213;-76
2022/07/18 05:40:37;;;;;;;4.80;2.50;;;;;;;19.02;44.14;95467.16;4951587;28;20212;-75
2022/07/18 05:43:04;;;;;;;2.95;2.10;;;;;;;19.00;43.51;95464.78;4952098;28;20209;-76
2022/07/18 05:45:31;;;;;;;3.28;1.80;;;;;;;18.95;42.59;95464.75;4951620;28;20208;-74
2022/07/18 05:47:58;;;;;;;5.53;1.90;;;;;;;19.06;42.83;95469.03;4951885;28;20205;-75
2022/07/18 05:50:25;;;;;;;3.40;2.25;;;;;;;19.15;43.23;95469.38;4952010;28;20709;-75
2022/07/18 05:52:53;;;;;;;7.20;2.08;;;;;;;19.27;41.52;95477.94;4951507;28;20672;-74
2022/07/18 05:55:21;;;;;;;5.28;2.08;;;;;;;19.56;40.64;95473.16;4950828;28;20283;-76
2022/07/18 05:57:49;;;;;;;6.53;2.08;;;;;;;19.72;40.36;95470.38;4951637;28;20205;-76
2022/07/18 06:00:17;;;;;;;4.90;1.98;;;;;;;19.84;39.99;95472.81;4951647;28;20304;-76
2022/07/18 06:02:44;;;;;;;4.53;2.03;;;;;;;19.80;40.41;95472.53;4958391;28;20271;-76
2022/07/18 06:05:13;;;;;;;2.58;2.03;;;;;;;19.81;40.40;95471.47;4970656;28;20204;-75
2022/07/18 06:07:39;;;;;;;4.78;1.83;;;;;;;19.82;39.87;95474.91;4964739;28;20209;-74
2022/07/18 06:10:07;;;;;;;6.18;2.20;;;;;;;19.83;40.12;95473.84;4970655;28;20212;-74
2022/07/18 06:12:36;;;;;;;2.63;1.92;;;;;;;19.87;38.49;95477.56;4974617;28;20208;-74
2022/07/18 06:15:03;;;;;;;5.45;2.30;;;;;;;19.91;38.61;95475.22;4965648;28;20240;-75
2022/07/18 06:17:30;;;;;;;1.92;1.73;;;;;;;19.92;39.03;95479.44;4955276;28;20303;-74
2022/07/18 06:19:57;;;;;;;5.05;1.70;;;;;;;19.99;38.56;95482.66;4963932;28;20735;-74
2022/07/18 06:22:24;;;;;;;7.97;1.92;;;;;;;20.06;38.91;95477.94;4956440;28;20212;-75
2022/07/18 06:24:51;;;;;;;2.58;1.73;;;;;;;20.08;38.36;95484.56;4959540;28;20239;-74
2022/07/18 06:27:18;;;;;;;2.17;1.70;;;;;;;20.10;37.75;95482.47;4963852;28;20201;-76
2022/07/18 06:29:47;;;;;;;2.80;1.77;;;;;;;20.14;37.70;95472.97;4964026;28;20201;-75
2022/07/18 06:32:14;;;;;;;4.10;1.60;;;;;;;20.23;37.79;95468.00;4963887;28;20208;-74
2022/07/18 06:34:41;;;;;;;4.93;1.88;;;;;;;20.37;38.30;95464.63;4954424;28;20217;-75
2022/07/18 06:37:08;;;;;;;3.50;1.60;;;;;;;20.47;37.53;95471.00;4969371;28;20211;-74
2022/07/18 06:39:34;;;;;;;3.22;1.85;;;;;;;20.51;36.16;95474.72;4954967;28;20215;-75
2022/07/18 06:42:01;;;;;;;3.03;1.60;;;;;;;20.51;36.30;95472.09;4954955;28;20217;-74
2022/07/18 06:44:29;;;;;;;1.73;1.60;;;;;;;20.45;36.83;95457.28;4955171;28;20201;-75
2022/07/18 06:46:59;;;;;;;3.78;1.95;;;;;;;20.46;37.53;95458.88;4955247;28;20316;-76
2022/07/18 06:49:26;;;;;;;3.55;1.80;;;;;;;20.41;37.38;95457.00;4959713;28;20200;-77
2022/07/18 06:51:52;;;;;;;2.72;1.70;;;;;;;20.44;36.47;95451.19;4974305;28;20279;-77
2022/07/18 06:54:20;;;;;;;3.67;1.80;;;;;;;20.58;37.75;95462.84;4974647;28;20341;-77
2022/07/18 06:56:47;;;;;;;4.32;1.73;;;;;;;20.60;36.79;95457.34;4973974;28;20201;-76
2022/07/18 06:59:13;;;;;;;5.18;1.85;;;;;;;20.66;36.35;95457.09;4974096;28;20582;-76
2022/07/18 07:01:40;;;;;;;1.73;1.55;;;;;;;20.76;36.64;95448.38;4974275;28;20208;-77
2022/07/18 07:04:08;;;;;;;5.03;2.03;;;;;;;20.71;35.88;95440.44;4973841;28;20216;-76
2022/07/18 07:06:37;;;;;;;6.22;1.50;;;;;;;20.85;37.62;95444.97;4973995;28;20204;-77
2022/07/18 07:09:04;;;;;;;3.58;1.80;;;;;;;21.00;36.09;95441.53;4973478;28;20200;-75
2022/07/18 07:11:31;;;;;;;4.38;2.60;;;;;;;21.03;35.83;95437.56;4973755;28;20225;-77
2022/07/18 07:13:58;;;;;;;3.63;1.98;;;;;;;20.84;35.20;95446.00;4973609;28;20212;-75
2022/07/18 07:16:25;;;;;;;3.88;2.30;;;;;;;20.91;34.94;95443.13;4955555;28;20579;-76
2022/07/18 07:18:52;;;;;;;3.20;1.67;;;;;;;20.89;34.22;95437.31;4955005;28;20210;-80
2022/07/18 07:21:20;;;;;;;2.40;1.52;;;;;;;20.90;34.17;95441.53;4953608;28;20213;-80
2022/07/18 07:23:47;;;;;;;4.78;2.00;;;;;;;20.91;33.25;95441.28;4970485;28;20588;-80
2022/07/18 07:26:13;;;;;;;4.05;2.20;;;;;;;20.92;33.37;95437.56;4973101;28;20660;-80
2022/07/18 07:28:40;;;;;;;2.10;1.70;;;;;;;20.89;33.71;95438.06;4967328;28;20209;-80
2022/07/18 07:31:07;;;;;;;2.67;1.85;;;;;;;20.92;34.12;95444.72;4964064;28;20205;-79
2022/07/18 07:33:34;;;;;;;4.03;1.70;;;;;;;20.92;34.43;95439.44;4963557;28;20208;-80
2022/07/18 07:36:03;;;;;;;4.50;1.60;;;;;;;21.05;34.42;95441.53;4961602;28;20643;-80
2022/07/18 07:38:31;;;;;;;6.53;1.52;;;;;;;21.10;33.76;95438.91;4963844;28;20236;-79
2022/07/18 07:41:01;;;;;;;2.25;1.67;;;;;;;21.35;32.14;95440.78;4962894;28;20204;-80
2022/07/18 07:43:28;;;;;;;3.45;1.70;;;;;;;21.45;31.81;95438.91;4973758;28;20660;-85
2022/07/18 07:45:56;;;;;;;4.55;1.65;;;;;;;21.55;31.76;95434.69;4969202;28;20202;-80
2022/07/18 07:48:23;;;;;;;3.40;1.70;;;;;;;21.42;32.36;95444.75;4956745;28;20198;-81
2022/07/18 07:50:50;;;;;;;4.60;1.58;;;;;;;21.33;32.44;95437.59;4968381;28;20209;-83
2022/07/18 07:53:20;;;;;;;3.83;1.55;;;;;;;21.34;31.92;95441.84;4964857;28;20190;-81
2022/07/18 07:55:48;;;;;;;4.15;2.00;;;;;;;21.49;33.07;95445.28;4959476;28;20232;-79
2022/07/18 07:58:15;;;;;;;2.63;1.60;;;;;;;21.66;32.85;95447.63;4965325;28;20197;-79
2022/07/18 08:00:42;;;;;;;6.65;1.67;;;;;;;21.78;32.35;95452.63;4959678;28;20208;-80
2022/07/18 08:03:10;;;;;;;3.53;1.60;;;;;;;21.86;32.55;95446.78;4969306;28;20570;-80
2022/07/18 08:05:39;;;;;;;4.78;2.35;;;;;;;21.93;32.11;95445.47;4963649;28;20198;-80
2022/07/18 08:08:07;;;;;;;5.05;1.80;;;;;;;22.08;32.24;95454.44;4971073;28;20201;-80
2022/07/18 08:10:34;;;;;;;3.13;1.80;;;;;;;22.16;31.25;95440.66;4971067;28;20208;-80
2022/07/18 08:13:02;;;;;;;4.03;1.50;;;;;;;22.32;30.71;95448.25;4956638;28;20197;-79
2022/07/18 08:15:29;;;;;;;2.47;1.70;;;;;;;22.41;30.30;95440.53;4969992;28;20236;-78
2022/07/18 08:17:56;;;;;;;1.98;1.80;;;;;;;22.48;30.51;95436.50;4971595;28;20197;-80
2022/07/18 08:20:24;;;;;;;4.05;1.70;;;;;;;22.76;30.98;95442.22;4963858;28;20201;-79
2022/07/18 08:22:56;;;;;;;6.75;2.08;;;;;;;22.92;31.24;95438.41;4956708;28;20205;-78
2022/07/18 08:25:24;;;;;;;4.03;1.88;;;;;;;22.98;30.18;95438.09;4960533;28;20205;-80
2022/07/18 08:27:51;;;;;;;2.15;1.52;;;;;;;22.99;30.17;95445.00;4971107;28;20204;-79
2022/07/18 08:30:19;;;;;;;4.13;1.65;;;;;;;23.03;30.75;95453.22;4968627;28;20214;-79
2022/07/18 08:32:46;;;;;;;5.38;1.80;;;;;;;23.04;30.59;95447.59;4971186;28;20276;-79
2022/07/18 08:35:13;;;;;;;2.20;1.50;;;;;;;23.09;29.80;95452.06;4964506;28;20595;-80
2022/07/18 08:37:40;;;;;;;1.63;1.52;;;;;;;23.08;28.85;95443.34;4973065;28;20208;-79
2022/07/18 08:40:09;;;;;;;2.30;1.80;;;;;;;23.11;29.22;95450.75;4955809;28;20205;-81
2022/07/18 08:42:36;;;;;;;5.40;2.00;;;;;;;23.23;29.96;95449.59;4957258;28;20231;-76
2022/07/18 08:45:04;;;;;;;3.33;2.00;;;;;;;23.39;30.60;95449.22;4967911;28;20680;-79
2022/07/18 08:47:32;;;;;;;6.63;2.53;;;;;;;23.48;30.81;95449.41;4952699;28;20205;-74
2022/07/18 08:50:01;;;;;;;7.70;5.43;;;;;;;23.62;30.93;95448.50;4952832;28;20672;-75
2022/07/18 08:52:29;;;;;;;6.30;2.10;;;;;;;23.79;30.01;95448.06;4952441;28;20205;-76
2022/07/18 08:54:56;;;;;;;2.42;1.90;;;;;;;23.78;29.97;95451.00;4956604;28;20716;-76
2022/07/18 08:57:24;;;;;;;3.83;2.10;;;;;;;23.78;29.77;95438.50;4964743;28;20201;-76
2022/07/18 08:59:51;;;;;;;4.35;2.63;;;;;;;23.78;29.71;95440.38;4961260;28;20213;-77
2022/07/18 09:02:18;;;;;;;4.35;2.00;;;;;;;23.82;30.47;95436.09;4963141;28;20204;-76
2022/07/18 09:04:46;;;;;;;6.68;2.40;;;;;;;23.98;31.05;95437.53;4972133;28;20675;-80
2022/07/18 09:07:25;;;;;;;3.58;1.90;;;;;;;23.99;31.61;95439.09;4965137;28;20308;-76
2022/07/18 09:09:57;;;;;;;6.55;2.00;;;;;;;23.98;31.79;95427.66;4971879;28;20652;-75
2022/07/18 09:12:24;;;;;;;5.63;2.33;;;;;;;24.04;32.51;95434.50;4971698;28;20584;-75
2022/07/18 09:14:51;;;;;;;4.70;2.15;;;;;;;24.21;32.64;95428.78;4965791;28;20209;-75
2022/07/18 09:17:20;;;;;;;3.33;2.25;;;;;;;24.33;31.70;95434.47;4951864;28;20213;-74
2022/07/18 09:20:01;;;;;;;5.15;2.08;;;;;;;24.52;31.84;95437.97;4952122;28;20724;-75
2022/07/18 09:22:30;;;;;;;3.55;2.00;;;;;;;24.64;31.97;95434.88;4966100;28;20246;-75
2022/07/18 09:25:01;;;;;;;3.65;2.00;;;;;;;24.67;32.44;95437.75;4968134;28;20197;-75
2022/07/18 09:27:33;;;;;;;6.13;2.50;;;;;;;24.64;32.49;95438.34;4971487;28;20291;-74
2022/07/18 09:30:22;;;;;;;5.95;2.47;;;;;;;24.82;32.62;95442.09;4971572;28;20205;-74
2022/07/18 09:32:52;;;;;;;3.42;2.00;;;;;;;24.98;32.74;95432.03;4971099;28;20600;-75
2022/07/18 09:35:23;;;;;;;4.22;2.20;;;;;;;25.09;32.69;95436.09;4971116;28;20331;-75
2022/07/18 09:37:55;;;;;;;2.67;1.90;;;;;;;25.25;32.21;95442.78;4971299;28;20205;-74
2022/07/18 09:40:24;;;;;;;3.33;2.45;;;;;;;25.44;32.42;95437.41;4971147;28;20204;-75
2022/07/18 09:42:52;;;;;;;6.35;2.13;;;;;;;25.54;32.51;95437.28;4964586;28;20242;-75
2022/07/18 09:45:26;;;;;;;5.50;2.25;;;;;;;25.59;31.58;95427.34;4964843;28;20881;-75
2022/07/18 09:47:55;;;;;;;4.40;2.30;;;;;;;25.58;31.85;95430.28;4959000;28;20209;-74
2022/07/18 09:50:29;;;;;;;5.35;1.90;;;;;;;25.49;30.76;95432.03;4971551;28;20587;-72
2022/07/18 09:53:12;;;;;;;7.47;2.10;;;;;;;25.46;31.69;95429.91;4971589;28;20223;-72
2022/07/18 09:55:44;;;;;;;10.52;2.33;;;;;;;25.51;31.49;95437.88;4962196;28;20227;-72
2022/07/18 09:58:11;;;;;;;4.47;2.50;;;;;;;25.59;31.59;95430.00;4971069;28;20204;-72
2022/07/18 10:00:40;;;;;;;4.13;2.10;;;;;;;25.53;31.54;95430.38;4959076;28;20205;-84
2022/07/18 10:03:08;;;;;;;4.95;2.20;;;;;;;25.61;31.85;95424.38;4971816;28;20680;-82
2022/07/18 10:05:38;;;;;;;5.50;2.20;;;;;;;25.74;32.57;95420.94;4958139;28;20201;-72
2022/07/18 10:08:08;;;;;;;4.80;2.30;;;;;;;25.77;30.77;95415.81;4970801;28;20237;-72
2022/07/18 10:10:35;;;;;;;3.50;2.45;;;;;;;25.95;32.14;95420.28;4968086;28;20205;-72
2022/07/18 10:13:04;;;;;;;4.95;2.40;;;;;;;26.21;31.82;95417.94;4965218;28;20201;-72
2022/07/18 10:15:33;;;;;;;7.55;2.50;;;;;;;26.63;31.75;95416.81;4953442;28;20237;-72
2022/07/18 10:18:01;;;;;;;6.72;2.60;;;;;;;26.90;30.90;95418.59;4963677;28;20193;-72
2022/07/18 10:20:35;;;;;;;10.23;2.65;;;;;;;27.00;30.70;95405.03;4967930;28;20213;-72
2022/07/18 10:23:17;;;;;;;6.22;3.53;;;;;;;27.13;30.49;95406.84;4969500;28;20692;-72
2022/07/18 10:25:44;;;;;;;6.45;2.40;;;;;;;26.99;29.94;95401.59;4963240;28;20256;-72
2022/07/18 10:28:13;;;;;;;4.07;2.67;;;;;;;26.80;30.14;95408.97;4963980;28;20208;-72
2022/07/18 10:30:43;;;;;;;8.23;2.53;;;;;;;26.95;31.07;95394.50;4961620;28;20577;-72
2022/07/18 10:33:39;;;;;;;7.85;2.55;;;;;;;27.08;30.25;95390.97;4950256;28;20292;-72
2022/07/18 10:36:10;;;;;;;9.23;2.13;;;;;;;27.28;30.65;95398.50;4964476;28;20261;-82
2022/07/18 10:38:40;;;;;;;2.97;2.00;;;;;;;27.45;30.18;95397.81;4964124;28;20691;-79
2022/07/18 10:41:09;;;;;;;5.75;2.67;;;;;;;27.73;30.06;95390.44;4965944;28;20205;-77
2022/07/18 10:44:00;;;;;;;3.25;2.30;;;;;;;27.83;29.38;95392.84;4970882;28;20249;-75
2022/07/18 10:47:11;;;;;;;11.15;3.25;;;;;;;27.92;29.55;95396.34;4964608;28;20292;-76
2022/07/18 10:50:01;;;;;;;6.63;2.65;;;;;;;27.97;29.56;95385.50;4956279;28;20201;-90
2022/07/18 10:53:03;;;;;;;6.32;2.55;;;;;;;28.06;29.36;95386.34;4969063;28;20210;-85
2022/07/18 10:55:35;;;;;;;4.45;2.60;;;;;;;28.31;29.37;95385.63;4960395;28;20228;-81
2022/07/18 10:58:22;;;;;;;4.38;2.20;;;;;;;28.59;29.46;95392.31;4972017;28;20208;-84
2022/07/18 11:00:56;;;;;;;4.20;2.10;;;;;;;28.72;29.06;95387.16;4974164;28;20209;-75
2022/07/18 11:03:30;;;;;;;5.15;2.20;;;;;;;28.76;29.32;95380.84;4961740;28;20201;-75
2022/07/18 11:05:59;;;;;;;6.85;2.60;;;;;;;28.91;28.85;95377.72;4967877;28;20309;-76
2022/07/18 11:08:33;;;;;;;3.40;2.63;;;;;;;28.94;28.43;95369.03;4962455;28;20196;-77
2022/07/18 11:11:16;;;;;;;5.32;2.17;;;;;;;29.01;27.92;95374.69;4964667;28;20199;-83
2022/07/18 11:13:49;;;;;;;9.48;2.60;;;;;;;29.12;27.04;95370.56;4974632;28;20231;-87
2022/07/18 11:16:19;;;;;;;5.57;2.00;;;;;;;29.13;26.83;95374.84;4965459;28;20247;-75
2022/07/18 11:19:21;;;;;;;8.68;2.83;;;;;;;29.30;27.79;95373.25;4971863;28;20611;-75
2022/07/18 11:21:58;;;;;;;6.55;2.55;;;;;;;29.38;28.20;95375.16;4968215;28;20209;-74
2022/07/18 11:24:26;;;;;;;8.02;2.50;;;;;;;29.63;27.93;95376.97;4964080;28;20547;-74
2022/07/18 11:26:53;;;;;;;5.35;2.28;;;;;;;29.60;27.21;95374.94;4970890;28;20272;-74
2022/07/18 11:29:21;;;;;;;13.60;3.20;;;;;;;29.56;27.40;95371.31;4960661;28;20242;-75
2022/07/18 11:31:49;;;;;;;7.35;2.63;;;;;;;29.62;27.45;95375.38;4973384;28;20642;-75
2022/07/18 11:34:17;;;;;;;3.35;2.30;;;;;;;29.96;26.59;95377.97;4973400;28;20223;-75
2022/07/18 11:36:48;;;;;;;5.57;2.65;;;;;;;29.92;26.47;95377.06;4973358;28;20221;-76
2022/07/18 11:39:16;;;;;;;4.18;2.53;;;;;;;29.76;26.88;95374.09;4973625;28;20205;-74
2022/07/18 11:41:44;;;;;;;3.25;2.30;;;;;;;29.62;26.84;95370.03;4973091;28;20679;-75
2022/07/18 11:44:20;;;;;;;6.55;2.35;;;;;;;29.57;26.98;95364.84;4967019;28;20295;-73
2022/07/18 11:46:47;;;;;;;6.53;2.75;;;;;;;29.49;26.91;95353.06;4963928;28;20212;-74